Time;durP1;ratioP1;P1;durP2;ratioP2;P2;SDS_P1;SDS_P2;PMS_P1;PMS_P2;Temp;Humidity;BMP_temperature;BMP_pressure;BME280_temperature;BME280_humidity;BME280_pressure;Samples;Min_cycle;Max_cycle;Signal;HPM_P1;HPM_P2
2023/09/25 00:02:00;;;;;;;4.53;2.40;;;17.20;96.80;;;;;;5013822;28;20034;-73
2023/09/25 00:04:28;;;;;;;5.95;1.70;;;17.10;96.80;;;;;;5014175;28;20038;-68
2023/09/25 00:06:54;;;;;;;4.32;2.30;;;17.10;96.70;;;;;;5014193;28;20026;-71
2023/09/25 00:09:19;;;;;;;4.15;2.10;;;17.10;96.80;;;;;;5014342;28;20025;-67
2023/09/25 00:11:45;;;;;;;3.17;2.42;;;17.10;96.90;;;;;;5014036;28;20395;-68
2023/09/25 00:14:11;;;;;;;3.45;2.03;;;17.10;96.80;;;;;;5012590;28;20026;-68
2023/09/25 00:16:38;;;;;;;3.08;1.98;;;17.00;96.90;;;;;;5012074;28;20040;-72
2023/09/25 00:19:04;;;;;;;4.45;2.17;;;17.00;96.90;;;;;;5014157;28;20014;-67
2023/09/25 00:21:30;;;;;;;4.47;2.08;;;17.00;96.70;;;;;;5013558;28;20065;-68
2023/09/25 00:23:55;;;;;;;4.32;1.92;;;17.00;96.80;;;;;;5013918;28;20049;-67
2023/09/25 00:26:21;;;;;;;4.22;2.20;;;17.00;96.80;;;;;;5013781;28;20373;-67
2023/09/25 00:28:47;;;;;;;2.83;2.42;;;17.00;96.80;;;;;;5014075;28;20025;-73
2023/09/25 00:31:12;;;;;;;4.07;2.33;;;17.00;96.80;;;;;;5012616;28;20041;-68
2023/09/25 00:33:38;;;;;;;4.72;2.33;;;17.00;96.80;;;;;;5013888;28;20028;-68
2023/09/25 00:36:05;;;;;;;3.28;1.92;;;17.00;96.80;;;;;;5013462;28;20057;-68
2023/09/25 00:38:31;;;;;;;3.67;1.67;;;17.00;96.70;;;;;;5013941;28;20030;-68
2023/09/25 00:40:57;;;;;;;3.03;2.08;;;17.00;96.60;;;;;;5013694;28;20438;-67
2023/09/25 00:43:23;;;;;;;3.58;1.75;;;16.90;96.60;;;;;;5013874;28;20459;-67
2023/09/25 00:45:49;;;;;;;3.60;1.70;;;16.90;96.60;;;;;;5013333;28;20383;-67
2023/09/25 00:48:26;;;;;;;4.38;2.15;;;16.90;96.60;;;;;;5011992;28;20064;-68
2023/09/25 00:50:54;;;;;;;3.97;1.75;;;17.00;96.60;;;;;;5013527;28;20034;-68
2023/09/25 00:53:20;;;;;;;3.80;2.20;;;16.90;96.70;;;;;;5013626;28;20108;-67
2023/09/25 00:55:47;;;;;;;4.80;1.75;;;16.90;96.60;;;;;;5013535;28;20053;-74
2023/09/25 00:58:13;;;;;;;5.25;2.40;;;16.90;96.70;;;;;;5013243;28;20463;-67
2023/09/25 01:00:38;;;;;;;4.22;2.20;;;16.90;96.70;;;;;;5013310;28;20057;-67
2023/09/25 01:03:06;;;;;;;4.93;2.20;;;16.90;96.60;;;;;;5012526;28;20026;-68
2023/09/25 01:05:32;;;;;;;4.35;1.60;;;16.90;96.60;;;;;;5013307;28;20065;-70
2023/09/25 01:07:58;;;;;;;6.43;2.30;;;16.90;96.70;;;;;;5013455;28;20022;-67
2023/09/25 01:10:26;;;;;;;3.00;1.60;;;16.90;96.70;;;;;;5013333;28;20479;-68
2023/09/25 01:12:53;;;;;;;4.07;2.10;;;16.90;97.00;;;;;;5013280;28;20364;-73
2023/09/25 01:15:19;;;;;;;4.97;2.33;;;16.90;96.70;;;;;;5013149;28;20014;-67
2023/09/25 01:17:45;;;;;;;3.45;1.85;;;16.80;96.80;;;;;;5013298;28;20025;-67
2023/09/25 01:20:15;;;;;;;3.17;1.63;;;16.90;96.80;;;;;;5003510;28;20038;-74
2023/09/25 01:22:42;;;;;;;2.55;2.05;;;16.90;96.90;;;;;;4993659;28;20476;-68
2023/09/25 01:25:11;;;;;;;4.05;1.70;;;16.80;96.80;;;;;;4993811;28;20050;-67
2023/09/25 01:27:38;;;;;;;3.72;1.88;;;16.80;96.90;;;;;;4993489;28;20034;-67
2023/09/25 01:30:05;;;;;;;4.15;2.60;;;16.80;96.90;;;;;;4992610;28;20053;-67
2023/09/25 01:32:31;;;;;;;2.80;1.95;;;16.80;97.00;;;;;;4993445;28;20060;-70
2023/09/25 01:34:57;;;;;;;5.25;2.10;;;16.80;96.90;;;;;;4997700;28;20511;-68
2023/09/25 01:37:23;;;;;;;3.63;2.13;;;16.80;96.90;;;;;;4997461;28;20480;-67
2023/09/25 01:39:48;;;;;;;2.38;1.50;;;16.80;96.90;;;;;;4997493;28;20058;-67
2023/09/25 01:42:14;;;;;;;4.10;2.08;;;16.70;96.90;;;;;;4997344;28;20479;-67
2023/09/25 01:44:40;;;;;;;3.33;1.80;;;16.70;96.90;;;;;;4999036;28;20655;-67
2023/09/25 01:47:05;;;;;;;2.75;1.67;;;16.70;97.00;;;;;;5014871;28;20030;-67
2023/09/25 01:49:32;;;;;;;4.10;2.00;;;16.70;96.90;;;;;;4997327;28;20054;-67
2023/09/25 01:51:58;;;;;;;3.13;1.80;;;16.70;97.00;;;;;;4997155;28;20039;-67
2023/09/25 01:54:24;;;;;;;3.72;1.80;;;16.70;97.00;;;;;;4996989;28;20110;-67
2023/09/25 01:56:49;;;;;;;3.20;2.00;;;16.70;97.00;;;;;;4995945;28;20025;-68
2023/09/25 01:59:15;;;;;;;3.00;1.63;;;16.70;97.00;;;;;;4996791;28;20033;-67
2023/09/25 02:01:41;;;;;;;4.72;2.25;;;16.70;97.10;;;;;;4996680;28;20050;-67
2023/09/25 02:04:07;;;;;;;5.80;1.77;;;16.70;97.10;;;;;;5016373;28;20368;-67
2023/09/25 02:06:33;;;;;;;4.63;2.03;;;16.60;97.10;;;;;;5016632;28;20045;-69
2023/09/25 02:08:59;;;;;;;4.57;2.50;;;16.60;97.10;;;;;;5016365;28;20097;-67
2023/09/25 02:11:25;;;;;;;4.72;2.17;;;16.70;97.10;;;;;;5016388;28;20563;-68
2023/09/25 02:13:50;;;;;;;5.65;2.03;;;16.70;97.10;;;;;;5016250;28;20021;-68
2023/09/25 02:16:16;;;;;;;5.00;2.10;;;16.60;97.10;;;;;;5015730;28;20029;-67
2023/09/25 02:18:42;;;;;;;3.40;2.17;;;16.60;97.10;;;;;;4997481;28;20034;-67
2023/09/25 02:21:07;;;;;;;3.30;2.17;;;16.60;97.10;;;;;;4996499;28;20515;-67
2023/09/25 02:23:33;;;;;;;3.45;2.38;;;16.60;97.10;;;;;;4996440;28;20376;-67
2023/09/25 02:25:58;;;;;;;5.10;2.53;;;16.60;97.20;;;;;;4996852;28;20128;-67
2023/09/25 02:28:24;;;;;;;4.28;2.65;;;16.60;97.20;;;;;;4996146;28;20038;-69
2023/09/25 02:30:50;;;;;;;3.83;2.20;;;16.60;97.20;;;;;;4996418;28;20142;-69
2023/09/25 02:33:16;;;;;;;4.22;2.40;;;16.60;97.30;;;;;;4996070;28;20057;-70
2023/09/25 02:35:41;;;;;;;3.90;2.67;;;16.60;97.20;;;;;;4995985;28;20108;-69
2023/09/25 02:38:07;;;;;;;3.92;2.50;;;16.60;97.20;;;;;;4996407;28;20022;-67
2023/09/25 02:40:33;;;;;;;3.85;2.42;;;16.60;97.20;;;;;;4996248;28;20375;-68
2023/09/25 02:42:58;;;;;;;4.03;2.20;;;16.60;97.20;;;;;;4996423;28;20054;-67
2023/09/25 02:45:24;;;;;;;4.13;2.20;;;16.60;97.30;;;;;;4995672;28;20522;-68
2023/09/25 02:47:50;;;;;;;5.88;2.63;;;16.60;97.30;;;;;;4996185;28;20030;-67
2023/09/25 02:50:16;;;;;;;3.40;2.17;;;16.60;97.30;;;;;;4994412;28;20098;-73
2023/09/25 02:52:44;;;;;;;3.65;2.20;;;16.50;97.30;;;;;;4995988;28;20059;-67
2023/09/25 02:55:11;;;;;;;3.67;2.20;;;16.50;97.40;;;;;;4995900;28;20097;-66
2023/09/25 02:57:37;;;;;;;4.55;2.30;;;16.50;97.40;;;;;;4996081;28;20483;-67
2023/09/25 03:00:09;;;;;;;4.70;2.38;;;16.50;97.40;;;;;;4996163;28;20093;-66
2023/09/25 03:02:34;;;;;;;5.43;2.40;;;16.50;97.40;;;;;;4996082;28;20029;-71
2023/09/25 03:05:00;;;;;;;5.47;2.22;;;16.50;97.50;;;;;;4995640;28;20030;-67
2023/09/25 03:07:25;;;;;;;6.15;2.10;;;16.50;97.50;;;;;;5004640;28;20455;-67
2023/09/25 03:09:51;;;;;;;5.82;2.20;;;16.50;97.60;;;;;;5015089;28;20029;-67
2023/09/25 03:12:16;;;;;;;3.60;2.40;;;16.50;97.60;;;;;;5015357;28;20384;-67
2023/09/25 03:14:42;;;;;;;3.67;2.00;;;16.40;97.60;;;;;;5015213;28;20092;-67
2023/09/25 03:17:08;;;;;;;5.13;2.60;;;16.50;97.60;;;;;;5015428;28;20030;-74
2023/09/25 03:19:35;;;;;;;3.60;2.00;;;16.50;97.70;;;;;;5015220;28;20168;-67
2023/09/25 03:22:01;;;;;;;5.00;2.38;;;16.40;97.70;;;;;;5013158;28;20037;-67
2023/09/25 03:24:27;;;;;;;3.70;2.03;;;16.50;97.70;;;;;;5014871;28;20036;-67
2023/09/25 03:26:52;;;;;;;4.80;2.45;;;16.40;97.80;;;;;;5015111;28;20105;-67
2023/09/25 03:29:18;;;;;;;4.07;2.03;;;16.40;97.80;;;;;;5014968;28;20033;-68
2023/09/25 03:31:43;;;;;;;4.88;2.35;;;16.40;97.90;;;;;;5014842;28;20501;-67
2023/09/25 03:34:09;;;;;;;4.22;2.42;;;16.40;97.90;;;;;;5014864;28;20029;-72
2023/09/25 03:36:35;;;;;;;4.60;2.55;;;16.40;98.00;;;;;;5012609;28;20471;-69
2023/09/25 03:39:00;;;;;;;3.67;1.95;;;16.40;98.00;;;;;;4997744;28;20049;-67
2023/09/25 03:41:26;;;;;;;4.10;1.98;;;16.30;98.00;;;;;;5001604;28;21487;-68
2023/09/25 03:43:51;;;;;;;3.45;2.15;;;16.40;98.10;;;;;;5004917;28;20084;-68
2023/09/25 03:46:17;;;;;;;3.78;1.83;;;16.30;98.10;;;;;;5012826;28;20033;-68
2023/09/25 03:48:42;;;;;;;4.05;2.00;;;16.30;98.10;;;;;;5014756;28;20025;-68
2023/09/25 03:51:08;;;;;;;4.30;2.33;;;16.30;98.10;;;;;;5014478;28;20046;-68
2023/09/25 03:53:34;;;;;;;3.85;2.00;;;16.30;98.20;;;;;;5014388;28;20093;-73
2023/09/25 03:55:59;;;;;;;4.15;2.35;;;16.30;98.20;;;;;;5010925;28;20022;-67
2023/09/25 03:58:25;;;;;;;4.55;1.88;;;16.30;98.30;;;;;;5013846;28;20025;-68
2023/09/25 04:00:52;;;;;;;4.43;2.17;;;16.30;98.30;;;;;;5014360;28;20132;-68
2023/09/25 04:03:18;;;;;;;4.47;1.90;;;16.30;98.30;;;;;;5014573;28;20022;-74
2023/09/25 04:05:43;;;;;;;3.08;2.22;;;16.30;98.30;;;;;;5014157;28;20052;-74
2023/09/25 04:08:09;;;;;;;4.38;2.10;;;16.30;98.30;;;;;;5014061;28;20591;-69
2023/09/25 04:10:35;;;;;;;5.20;2.08;;;16.30;98.50;;;;;;5014178;28;20092;-68
2023/09/25 04:13:00;;;;;;;4.53;2.05;;;16.20;98.40;;;;;;5000037;28;20030;-67
2023/09/25 04:15:26;;;;;;;5.07;2.13;;;16.20;98.50;;;;;;4994535;28;20097;-67
2023/09/25 04:17:57;;;;;;;2.53;1.73;;;16.20;98.50;;;;;;4994589;28;20022;-67
2023/09/25 04:20:26;;;;;;;3.35;1.80;;;16.20;98.60;;;;;;4994244;28;20030;-70
2023/09/25 04:22:53;;;;;;;2.80;1.73;;;16.20;98.60;;;;;;4994348;28;20391;-67
2023/09/25 04:25:19;;;;;;;2.67;1.80;;;16.20;98.70;;;;;;4994693;28;20076;-68
2023/09/25 04:27:50;;;;;;;2.65;1.50;;;16.20;98.70;;;;;;4993304;28;20022;-67
2023/09/25 04:30:17;;;;;;;3.22;1.55;;;16.30;99.00;;;;;;5009052;28;20026;-67
2023/09/25 04:32:44;;;;;;;2.70;1.60;;;16.40;98.90;;;;;;5007800;28;20042;-66
2023/09/25 04:35:12;;;;;;;2.53;1.63;;;16.50;98.70;;;;;;4998876;28;20025;-73
2023/09/25 04:37:38;;;;;;;4.55;1.77;;;16.60;98.60;;;;;;4998867;28;20077;-67
2023/09/25 04:40:22;;;;;;;2.30;1.52;;;16.70;98.50;;;;;;5013752;28;20374;-67
2023/09/25 04:42:52;;;;;;;2.60;1.67;;;16.60;98.40;;;;;;5004510;28;20471;-68
2023/09/25 04:45:19;;;;;;;9.18;2.25;;;16.70;98.50;;;;;;4997768;28;20052;-68
2023/09/25 04:47:46;;;;;;;2.70;1.30;;;16.70;98.60;;;;;;4997681;28;20117;-67
2023/09/25 04:50:12;;;;;;;2.90;1.65;;;16.60;98.20;;;;;;5008955;28;20026;-67
2023/09/25 04:52:41;;;;;;;3.20;2.03;;;16.50;98.20;;;;;;4999645;28;20415;-73
2023/09/25 04:55:12;;;;;;;4.25;1.90;;;16.60;98.30;;;;;;5009640;28;20084;-67
2023/09/25 04:57:42;;;;;;;2.85;1.50;;;16.60;98.30;;;;;;4999363;28;20033;-68
2023/09/25 05:02:45;;;;;;;4.43;1.60;;;16.50;98.20;;;;;;5001104;28;20030;-66
2023/09/25 05:05:15;;;;;;;3.10;1.85;;;16.40;98.20;;;;;;4992072;28;20022;-67
2023/09/25 05:07:42;;;;;;;5.00;1.60;;;16.40;98.20;;;;;;4993154;28;20034;-68
2023/09/25 05:10:12;;;;;;;3.85;1.80;;;16.40;98.30;;;;;;5002854;28;20033;-67
2023/09/25 05:12:43;;;;;;;3.45;1.70;;;16.40;98.30;;;;;;5013208;28;20022;-67
2023/09/25 05:15:10;;;;;;;3.80;2.03;;;16.40;98.30;;;;;;5009413;28;20045;-73
2023/09/25 05:17:37;;;;;;;3.58;1.50;;;16.40;98.30;;;;;;5000190;28;20029;-67
2023/09/25 05:20:11;;;;;;;4.03;1.70;;;16.40;98.30;;;;;;5007263;28;20034;-68
2023/09/25 05:22:41;;;;;;;4.72;2.03;;;16.40;98.30;;;;;;5002673;28;20030;-71
2023/09/25 05:25:08;;;;;;;4.40;1.60;;;16.40;98.40;;;;;;5002425;28;20026;-68
2023/09/25 05:27:35;;;;;;;3.78;2.08;;;16.20;98.50;;;;;;5013249;28;20383;-68
2023/09/25 05:30:05;;;;;;;4.65;1.88;;;16.20;98.60;;;;;;5012972;28;20041;-67
2023/09/25 05:32:32;;;;;;;3.33;1.40;;;16.10;98.90;;;;;;5006530;28;20396;-68
2023/09/25 05:34:59;;;;;;;3.65;1.70;;;16.10;98.70;;;;;;5001456;28;20026;-69
2023/09/25 05:37:24;;;;;;;4.13;1.77;;;16.10;98.70;;;;;;4993395;28;20491;-66
2023/09/25 05:39:50;;;;;;;4.20;1.60;;;16.00;98.80;;;;;;5000700;28;20077;-68
2023/09/25 05:42:16;;;;;;;4.28;1.70;;;16.10;98.80;;;;;;4995183;28;20041;-68
2023/09/25 05:44:42;;;;;;;3.03;1.58;;;16.00;98.90;;;;;;4993076;28;20391;-66
2023/09/25 05:47:07;;;;;;;2.97;1.52;;;16.10;98.90;;;;;;4993443;28;20022;-67
2023/09/25 05:49:33;;;;;;;3.30;1.50;;;16.10;98.80;;;;;;5006968;28;20029;-68
2023/09/25 05:51:58;;;;;;;5.30;1.35;;;16.20;98.70;;;;;;4993572;28;20384;-67
2023/09/25 05:54:24;;;;;;;2.80;1.40;;;16.20;98.70;;;;;;4995967;28;20586;-67
2023/09/25 05:56:50;;;;;;;4.35;1.40;;;16.20;98.70;;;;;;5010282;28;20037;-66
2023/09/25 05:59:16;;;;;;;3.22;1.70;;;16.20;98.80;;;;;;5003258;28;20034;-67
2023/09/25 06:01:45;;;;;;;2.78;1.80;;;16.20;98.80;;;;;;5000365;28;20424;-68
2023/09/25 06:04:11;;;;;;;3.88;1.30;;;16.20;98.80;;;;;;4991926;28;20029;-68
2023/09/25 06:06:37;;;;;;;4.97;2.20;;;16.10;98.80;;;;;;4995555;28;20026;-67
2023/09/25 06:09:08;;;;;;;3.33;1.90;;;16.20;98.80;;;;;;4999573;28;20392;-68
2023/09/25 06:11:38;;;;;;;5.60;1.80;;;16.20;98.80;;;;;;5004060;28;20420;-68
2023/09/25 06:14:04;;;;;;;3.30;1.60;;;16.20;98.80;;;;;;4993031;28;20027;-67
2023/09/25 06:16:30;;;;;;;6.50;1.77;;;16.20;98.80;;;;;;4993235;28;20041;-69
2023/09/25 06:18:56;;;;;;;2.45;1.63;;;16.20;98.80;;;;;;5005303;28;20483;-67
2023/09/25 06:21:21;;;;;;;4.07;1.80;;;16.20;98.80;;;;;;4997820;28;20471;-66
2023/09/25 06:23:48;;;;;;;3.63;1.98;;;16.20;98.80;;;;;;4995501;28;20030;-66
2023/09/25 06:26:14;;;;;;;3.63;1.98;;;16.20;98.80;;;;;;4996970;28;20427;-66
2023/09/25 06:28:41;;;;;;;6.00;2.03;;;16.20;98.80;;;;;;5016326;28;20397;-66
2023/09/25 06:31:07;;;;;;;2.90;1.70;;;16.20;98.80;;;;;;5000251;28;20041;-67
2023/09/25 06:33:33;;;;;;;4.95;1.90;;;16.20;98.80;;;;;;4996168;28;20026;-66
2023/09/25 06:35:59;;;;;;;3.15;2.00;;;16.20;98.80;;;;;;4996883;28;20024;-66
2023/09/25 06:38:24;;;;;;;4.90;2.20;;;16.20;98.80;;;;;;4996385;28;20034;-66
2023/09/25 06:40:50;;;;;;;6.03;2.55;;;16.30;98.80;;;;;;4996405;28;20037;-66
2023/09/25 06:43:15;;;;;;;4.55;2.25;;;16.30;98.80;;;;;;4996329;28;20032;-66
2023/09/25 06:45:41;;;;;;;4.22;1.83;;;16.30;98.80;;;;;;5005560;28;20081;-67
2023/09/25 06:48:07;;;;;;;3.25;1.65;;;16.30;98.80;;;;;;5015672;28;20036;-67
2023/09/25 06:50:33;;;;;;;3.53;1.95;;;16.30;98.80;;;;;;5015516;28;20054;-67
2023/09/25 06:52:59;;;;;;;4.40;1.80;;;16.30;98.80;;;;;;4996465;28;20035;-66
2023/09/25 06:55:24;;;;;;;3.03;1.60;;;16.30;98.80;;;;;;4995710;28;20026;-66
2023/09/25 06:57:51;;;;;;;4.88;2.00;;;16.30;98.80;;;;;;4996283;28;20499;-66
2023/09/25 07:00:18;;;;;;;3.45;1.80;;;16.40;98.80;;;;;;4995982;28;20105;-68
2023/09/25 07:02:44;;;;;;;4.13;1.80;;;16.30;98.80;;;;;;4995677;28;20105;-67
2023/09/25 07:05:09;;;;;;;5.03;2.08;;;16.30;98.80;;;;;;4995649;28;20034;-66
2023/09/25 07:07:39;;;;;;;7.55;2.33;;;16.40;98.80;;;;;;4995825;28;20502;-66
2023/09/25 07:10:09;;;;;;;5.28;1.98;;;16.40;98.80;;;;;;4995417;28;20023;-66
2023/09/25 07:12:35;;;;;;;7.03;2.10;;;16.40;98.80;;;;;;5015231;28;20061;-67
2023/09/25 07:15:02;;;;;;;3.70;2.10;;;16.40;98.80;;;;;;5015170;28;20033;-67
2023/09/25 07:17:29;;;;;;;3.08;2.00;;;16.40;98.90;;;;;;5015199;28;20026;-67
2023/09/25 07:19:55;;;;;;;6.53;2.35;;;16.50;98.90;;;;;;5015179;28;20459;-66
2023/09/25 07:22:23;;;;;;;5.93;2.17;;;16.50;98.90;;;;;;5013742;28;20026;-67
2023/09/25 07:24:49;;;;;;;4.72;2.22;;;16.60;98.90;;;;;;4998356;28;20387;-66
2023/09/25 07:27:16;;;;;;;4.47;2.17;;;16.60;98.90;;;;;;4995645;28;20030;-66
2023/09/25 07:29:42;;;;;;;3.45;1.83;;;16.60;98.90;;;;;;4995519;28;20037;-66
2023/09/25 07:32:09;;;;;;;3.00;2.03;;;16.70;98.90;;;;;;4994935;28;20042;-66
2023/09/25 07:34:34;;;;;;;9.05;2.20;;;16.70;98.90;;;;;;4995098;28;20491;-67
2023/09/25 07:37:00;;;;;;;7.95;1.90;;;16.80;99.00;;;;;;4995261;28;20102;-66
2023/09/25 07:39:26;;;;;;;3.25;1.95;;;16.80;98.90;;;;;;5009603;28;20018;-65
2023/09/25 07:41:52;;;;;;;5.63;2.40;;;16.80;98.70;;;;;;5003276;28;20030;-66
2023/09/25 07:44:18;;;;;;;7.32;4.25;;;16.90;98.70;;;;;;4995338;28;20026;-65
2023/09/25 07:46:44;;;;;;;12.80;8.40;;;16.90;98.70;;;;;;4994654;28;20030;-65
2023/09/25 07:49:10;;;;;;;14.35;7.32;;;16.90;98.60;;;;;;4993373;28;20019;-65
2023/09/25 07:51:36;;;;;;;10.27;6.97;;;16.90;98.60;;;;;;5006417;28;20125;-65
2023/09/25 07:54:03;;;;;;;7.78;4.53;;;17.00;98.60;;;;;;4994611;28;20050;-66
2023/09/25 07:56:30;;;;;;;6.22;5.38;;;17.00;98.50;;;;;;4995806;28;20030;-68
2023/09/25 07:58:55;;;;;;;6.00;3.53;;;17.00;98.50;;;;;;4993761;28;20495;-65
2023/09/25 08:01:22;;;;;;;3.53;1.90;;;17.10;98.60;;;;;;4994492;28;20030;-66
2023/09/25 08:03:51;;;;;;;4.50;1.83;;;17.10;98.50;;;;;;4995311;28;20431;-65
2023/09/25 08:06:19;;;;;;;4.00;1.55;;;17.10;98.40;;;;;;4994766;28;20038;-65
2023/09/25 08:08:45;;;;;;;5.07;2.08;;;17.20;98.50;;;;;;4994964;28;20025;-65
2023/09/25 08:11:14;;;;;;;5.65;1.70;;;17.20;98.70;;;;;;4996813;28;20041;-65
2023/09/25 08:13:40;;;;;;;3.65;1.58;;;17.20;98.50;;;;;;4994718;28;20427;-65
2023/09/25 08:16:07;;;;;;;3.95;1.73;;;17.20;98.50;;;;;;5003426;28;20026;-65
2023/09/25 08:18:32;;;;;;;4.80;1.50;;;17.30;98.50;;;;;;5014257;28;20022;-65
2023/09/25 08:20:59;;;;;;;5.90;2.53;;;17.30;98.50;;;;;;5014069;28;20026;-65
2023/09/25 08:23:25;;;;;;;6.65;3.10;;;17.30;98.50;;;;;;5014273;28;20018;-65
2023/09/25 08:25:50;;;;;;;10.77;8.43;;;17.40;97.60;;;;;;5014084;28;20037;-66
2023/09/25 08:28:16;;;;;;;14.55;8.13;;;17.40;97.70;;;;;;5003276;28;20026;-65
2023/09/25 08:30:42;;;;;;;9.77;6.68;;;17.50;97.50;;;;;;4996366;28;20081;-67
2023/09/25 08:33:07;;;;;;;7.72;4.35;;;17.50;97.50;;;;;;4994269;28;20506;-66
2023/09/25 08:35:33;;;;;;;5.35;2.30;;;17.50;97.90;;;;;;4994242;28;20058;-65
2023/09/25 08:37:59;;;;;;;5.32;2.17;;;17.60;97.90;;;;;;4994145;28;20026;-65
2023/09/25 08:40:25;;;;;;;2.22;1.67;;;17.60;97.90;;;;;;4994648;28;20033;-65
2023/09/25 08:42:51;;;;;;;7.05;2.30;;;17.60;97.70;;;;;;4994749;28;20131;-66
2023/09/25 08:45:20;;;;;;;3.55;2.20;;;17.60;97.70;;;;;;5001264;28;20502;-65
2023/09/25 08:47:46;;;;;;;3.50;1.67;;;17.60;97.80;;;;;;5008946;28;20022;-66
2023/09/25 08:50:12;;;;;;;2.22;1.65;;;17.70;98.00;;;;;;4994076;28;20029;-66
2023/09/25 08:52:39;;;;;;;6.68;1.67;;;17.70;97.90;;;;;;4993921;28;20464;-66
2023/09/25 08:55:06;;;;;;;4.97;1.45;;;17.70;97.90;;;;;;4993961;28;20027;-67
2023/09/25 08:57:32;;;;;;;4.50;1.65;;;17.70;98.00;;;;;;4993844;28;20105;-67
2023/09/25 09:00:11;;;;;;;5.15;2.08;;;17.80;97.90;;;;;;4993763;28;20378;-66
2023/09/25 09:02:40;;;;;;;2.90;1.70;;;17.80;97.90;;;;;;4993528;28;20030;-67
2023/09/25 09:05:10;;;;;;;3.78;1.63;;;17.80;98.00;;;;;;4992988;28;20129;-66
2023/09/25 09:07:35;;;;;;;5.05;1.83;;;17.80;98.10;;;;;;5012366;28;20120;-67
2023/09/25 09:10:01;;;;;;;4.80;1.92;;;17.90;98.10;;;;;;5013490;28;20097;-65
2023/09/25 09:12:27;;;;;;;5.18;1.70;;;17.90;98.20;;;;;;5013088;28;20041;-65
2023/09/25 09:14:52;;;;;;;3.88;1.65;;;17.90;98.20;;;;;;5013417;28;20034;-66
2023/09/25 09:17:18;;;;;;;4.13;2.03;;;17.90;98.10;;;;;;5006284;28;20472;-66
2023/09/25 09:19:43;;;;;;;2.53;2.10;;;17.90;98.20;;;;;;4995787;28;20026;-66
2023/09/25 09:22:09;;;;;;;4.07;2.20;;;17.90;98.20;;;;;;4993502;28;20022;-66
2023/09/25 09:24:40;;;;;;;4.55;1.98;;;18.00;98.20;;;;;;4993644;28;20077;-66
2023/09/25 09:27:08;;;;;;;2.55;1.67;;;18.00;98.20;;;;;;4993247;28;20014;-66
2023/09/25 09:29:39;;;;;;;4.40;2.08;;;18.00;98.30;;;;;;4993852;28;20034;-66
2023/09/25 09:32:05;;;;;;;4.50;1.98;;;18.00;98.30;;;;;;4993349;28;20038;-65
2023/09/25 09:34:32;;;;;;;3.45;1.73;;;18.00;98.20;;;;;;4994518;28;20015;-66
2023/09/25 09:36:58;;;;;;;3.63;1.98;;;18.00;98.20;;;;;;5008801;28;20079;-66
2023/09/25 09:39:25;;;;;;;2.53;1.50;;;18.10;98.10;;;;;;5013346;28;20022;-65
2023/09/25 09:41:55;;;;;;;4.35;1.70;;;18.10;98.20;;;;;;5004282;28;20019;-67
2023/09/25 09:44:21;;;;;;;2.00;1.30;;;18.10;98.20;;;;;;4993343;28;20038;-65
2023/09/25 09:46:50;;;;;;;2.28;1.60;;;18.10;98.30;;;;;;4993648;28;20069;-65
2023/09/25 09:49:22;;;;;;;5.03;1.85;;;18.10;98.30;;;;;;4993857;28;20472;-65
2023/09/25 09:51:50;;;;;;;3.30;1.83;;;18.20;98.30;;;;;;4992832;28;20042;-66
2023/09/25 09:54:18;;;;;;;2.80;1.40;;;18.20;98.30;;;;;;4993186;28;20050;-66
2023/09/25 09:56:49;;;;;;;6.90;2.15;;;18.20;98.30;;;;;;4996898;28;20502;-66
2023/09/25 09:59:16;;;;;;;2.03;1.20;;;18.20;98.40;;;;;;4997179;28;20030;-65
2023/09/25 10:01:47;;;;;;;4.72;1.92;;;18.20;98.30;;;;;;4997213;28;20037;-65
2023/09/25 10:04:15;;;;;;;2.97;1.45;;;18.30;98.40;;;;;;4996796;28;20061;-65
2023/09/25 10:06:50;;;;;;;2.10;1.25;;;18.30;98.40;;;;;;4996927;28;20038;-65
2023/09/25 10:09:16;;;;;;;3.30;1.98;;;18.30;98.40;;;;;;4996940;28;20025;-66
2023/09/25 10:11:45;;;;;;;4.25;1.48;;;18.30;98.40;;;;;;5004995;28;20125;-65
2023/09/25 10:14:10;;;;;;;4.53;1.95;;;18.40;98.50;;;;;;5016425;28;20050;-65
2023/09/25 10:16:54;;;;;;;4.30;2.40;;;18.40;98.40;;;;;;5016458;28;20026;-66
2023/09/25 10:19:20;;;;;;;2.97;1.90;;;18.40;98.40;;;;;;5016196;28;20041;-65
2023/09/25 10:22:24;;;;;;;3.75;1.50;;;18.40;98.70;;;;;;5016442;28;20029;-65
2023/09/25 10:25:04;;;;;;;1.50;1.30;;;18.40;98.40;;;;;;4950150;28;20027;-65
2023/09/25 10:27:31;;;;;;;3.63;1.88;;;18.50;98.40;;;;;;4993094;28;20041;-65
2023/09/25 10:30:23;;;;;;;5.57;2.00;;;18.40;98.40;;;;;;4996059;28;20018;-65
2023/09/25 10:32:52;;;;;;;6.20;2.05;;;18.50;98.40;;;;;;4998465;28;20050;-65
2023/09/25 10:35:38;;;;;;;5.68;1.70;;;18.50;98.50;;;;;;5003195;28;20033;-65
2023/09/25 10:38:25;;;;;;;3.38;1.45;;;18.50;98.40;;;;;;5006441;28;20030;-65
2023/09/25 10:40:54;;;;;;;3.70;2.05;;;18.50;98.50;;;;;;5006855;28;20072;-65
2023/09/25 10:43:22;;;;;;;2.63;1.42;;;18.50;98.50;;;;;;5006683;28;20032;-68
2023/09/25 10:45:49;;;;;;;5.47;2.28;;;18.60;98.50;;;;;;5006064;28;20032;-66
2023/09/25 10:48:15;;;;;;;5.18;1.80;;;18.60;98.50;;;;;;5013853;28;20025;-67
2023/09/25 10:50:43;;;;;;;3.78;1.70;;;18.60;98.50;;;;;;5013648;28;20025;-67
2023/09/25 10:53:10;;;;;;;3.15;1.48;;;18.60;98.50;;;;;;5008859;28;20542;-67
2023/09/25 10:55:36;;;;;;;2.85;1.85;;;18.60;98.60;;;;;;5013411;28;20036;-66
2023/09/25 10:58:06;;;;;;;4.45;2.15;;;18.70;98.60;;;;;;5014059;28;20026;-66
2023/09/25 11:00:34;;;;;;;6.40;2.25;;;18.70;98.70;;;;;;4996824;28;20065;-66
2023/09/25 11:03:01;;;;;;;4.00;2.13;;;18.70;98.60;;;;;;5005853;28;20054;-66
2023/09/25 11:05:29;;;;;;;2.72;1.60;;;18.70;98.70;;;;;;5010876;28;20406;-70
2023/09/25 11:07:55;;;;;;;8.73;1.90;;;18.70;98.70;;;;;;5007135;28;20033;-66
2023/09/25 11:10:21;;;;;;;5.57;2.10;;;18.80;99.00;;;;;;5001600;28;20037;-66
2023/09/25 11:12:47;;;;;;;2.88;1.45;;;18.80;98.80;;;;;;5013297;28;20037;-66
2023/09/25 11:15:22;;;;;;;4.70;1.95;;;18.80;98.80;;;;;;5013497;28;20018;-66
2023/09/25 11:17:48;;;;;;;5.55;1.80;;;18.90;98.80;;;;;;5011226;28;20475;-66
2023/09/25 11:20:22;;;;;;;4.15;1.92;;;18.90;98.80;;;;;;5004722;28;20031;-66
2023/09/25 11:22:49;;;;;;;3.45;1.40;;;18.90;98.80;;;;;;5004950;28;20026;-66
2023/09/25 11:25:16;;;;;;;2.63;1.70;;;18.90;98.80;;;;;;5007734;28;20022;-67
2023/09/25 11:27:53;;;;;;;7.75;1.85;;;19.00;98.80;;;;;;5012148;28;20483;-66
2023/09/25 11:30:19;;;;;;;3.50;1.50;;;19.00;98.80;;;;;;5007002;28;20010;-67
2023/09/25 11:32:45;;;;;;;3.78;2.03;;;19.10;98.90;;;;;;5007237;28;20030;-67
2023/09/25 11:35:12;;;;;;;2.92;1.45;;;19.00;98.70;;;;;;5016217;28;20463;-67
2023/09/25 11:37:59;;;;;;;2.28;1.40;;;19.10;98.80;;;;;;5007103;28;20438;-67
2023/09/25 11:40:26;;;;;;;2.20;1.60;;;19.10;98.70;;;;;;5003485;28;20049;-66
2023/09/25 11:42:52;;;;;;;5.88;1.83;;;19.10;98.80;;;;;;5010940;28;20034;-67
2023/09/25 11:45:19;;;;;;;2.50;1.73;;;19.20;98.80;;;;;;5002093;28;20030;-67
2023/09/25 11:47:45;;;;;;;3.10;1.70;;;19.20;98.80;;;;;;5007705;28;20026;-67
2023/09/25 11:50:13;;;;;;;3.60;1.25;;;19.20;98.80;;;;;;5002279;28;20044;-66
2023/09/25 11:52:41;;;;;;;3.65;1.40;;;19.20;98.80;;;;;;5002224;28;20419;-67
2023/09/25 11:55:10;;;;;;;3.70;1.70;;;19.20;98.80;;;;;;5012521;28;20037;-66
2023/09/25 11:57:36;;;;;;;5.82;1.85;;;19.30;98.80;;;;;;5012602;28;20104;-66
2023/09/25 12:00:04;;;;;;;3.45;1.55;;;19.30;98.70;;;;;;5012713;28;20535;-66
2023/09/25 12:02:31;;;;;;;3.55;1.80;;;19.30;98.70;;;;;;5007704;28;20105;-66
2023/09/25 12:04:58;;;;;;;3.17;1.63;;;19.30;98.70;;;;;;5011997;28;20092;-71
2023/09/25 12:07:26;;;;;;;2.08;1.38;;;19.40;98.80;;;;;;5009111;28;20471;-69
2023/09/25 12:09:52;;;;;;;3.80;1.65;;;19.40;98.80;;;;;;5000875;28;20069;-65
2023/09/25 12:12:18;;;;;;;3.97;1.60;;;19.40;98.80;;;;;;5001625;28;20050;-66
2023/09/25 12:14:44;;;;;;;3.28;1.50;;;19.50;98.80;;;;;;5003260;28;20487;-65
2023/09/25 12:17:17;;;;;;;3.70;1.58;;;19.50;98.80;;;;;;5010586;28;20084;-68
2023/09/25 12:19:42;;;;;;;3.80;1.42;;;19.50;98.70;;;;;;5010597;28;20479;-66
2023/09/25 12:22:08;;;;;;;3.33;1.48;;;19.60;98.70;;;;;;5004593;28;20032;-66
2023/09/25 12:24:34;;;;;;;6.85;2.05;;;19.50;98.70;;;;;;5007468;28;20044;-66
2023/09/25 12:26:59;;;;;;;5.03;1.73;;;19.60;98.70;;;;;;5000213;28;20069;-70
2023/09/25 12:29:25;;;;;;;2.00;1.42;;;19.60;98.70;;;;;;4997943;28;20033;-66
2023/09/25 12:31:51;;;;;;;2.15;1.63;;;19.60;98.70;;;;;;4995237;28;20093;-66
2023/09/25 12:34:16;;;;;;;5.15;1.67;;;19.60;98.60;;;;;;5008124;28;20459;-66
2023/09/25 12:36:42;;;;;;;2.30;1.08;;;19.70;98.60;;;;;;5011172;28;20034;-66
2023/09/25 12:39:08;;;;;;;3.63;1.50;;;19.70;98.60;;;;;;5005049;28;20032;-67
2023/09/25 12:41:34;;;;;;;2.95;1.50;;;19.70;98.60;;;;;;5005232;28;20042;-67
2023/09/25 12:44:00;;;;;;;3.88;1.88;;;19.80;98.50;;;;;;4997309;28;20028;-66
2023/09/25 12:46:26;;;;;;;3.22;1.75;;;19.80;98.50;;;;;;5010045;28;20141;-65
2023/09/25 12:48:51;;;;;;;5.35;2.83;;;19.80;98.50;;;;;;4999592;28;20489;-65